createdAt,value
2022-12-26T00:00:34.523Z,6.42
2022-12-26T00:10:42.307Z,5.98
2022-12-26T00:20:50.322Z,6.45
2022-12-26T00:30:58.211Z,6.38
2022-12-26T00:41:07.465Z,6.86
2022-12-26T00:51:15.359Z,7.37
2022-12-26T01:01:23.441Z,7.5
2022-12-26T01:11:31.106Z,6.14
2022-12-26T01:21:38.951Z,6.5
2022-12-26T01:31:49.757Z,5.84
2022-12-26T01:51:50.886Z,5.06
2022-12-26T02:01:58.918Z,4.87
2022-12-26T02:12:33.218Z,4.69
2022-12-26T02:22:12.685Z,4.56
2022-12-26T02:32:20.523Z,4.54
2022-12-26T02:42:28.515Z,4.58
2022-12-26T02:52:36.466Z,4.85
2022-12-26T03:02:45.615Z,4.25
2022-12-26T03:12:53.367Z,4.29
2022-12-26T03:23:01.317Z,4.69
2022-12-26T03:33:09.262Z,4.07
2022-12-26T03:43:18.302Z,4.06
2022-12-26T03:53:26.237Z,4.15
2022-12-26T04:03:34.088Z,3.94
2022-12-26T04:13:41.965Z,3.65
2022-12-26T04:23:49.934Z,3.96
2022-12-26T04:33:57.817Z,3.57
2022-12-26T04:44:06.883Z,4.35
2022-12-26T04:54:15.033Z,3.85
2022-12-26T05:04:24.904Z,3.78
2022-12-26T05:14:33.006Z,3.74
2022-12-26T05:24:40.932Z,3.37
2022-12-26T05:34:48.679Z,3.15
2022-12-26T05:44:59.533Z,3.11
2022-12-26T06:05:00.102Z,3.27
2022-12-26T06:15:07.454Z,3.29
2022-12-26T06:25:15.387Z,2.99
2022-12-26T06:35:23.329Z,2.96
2022-12-26T06:45:31.182Z,3.38
2022-12-26T06:55:39.043Z,3.12
2022-12-26T07:05:46.790Z,3.42
2022-12-26T07:15:54.741Z,3.58
2022-12-26T07:26:02.624Z,3.76
2022-12-26T07:36:10.606Z,3.71
2022-12-26T07:46:18.652Z,3.86
2022-12-26T07:56:26.541Z,4.61
2022-12-26T08:06:39.939Z,4.06
2022-12-26T08:26:39.581Z,3.74
2022-12-26T08:36:50.140Z,3.61
2022-12-26T08:46:51.035Z,3.41
2022-12-26T08:56:49.094Z,5.56
2022-12-26T09:06:57.560Z,5.93
2022-12-26T09:17:07.595Z,5.13
2022-12-26T09:27:05.633Z,5.65
2022-12-26T09:37:13.764Z,4.62
2022-12-26T09:47:21.716Z,5.45
2022-12-26T09:57:29.610Z,6.86
2022-12-26T10:07:37.544Z,8.82
2022-12-26T10:17:47.948Z,5.55
2022-12-26T10:27:52.864Z,3.66
2022-12-26T10:37:50.920Z,3.3
2022-12-26T10:47:58.874Z,3.33
2022-12-26T10:58:06.826Z,3.36
2022-12-26T11:08:14.281Z,3.82
2022-12-26T11:18:22.152Z,3.75
2022-12-26T11:28:30.112Z,3.38
2022-12-26T11:38:45.151Z,4.53
2022-12-26T11:48:38.872Z,4.86
2022-12-26T11:59:26.249Z,5.44
2022-12-26T12:09:03.925Z,5.13
2022-12-26T12:19:12.407Z,4.9
2022-12-26T12:29:06.423Z,5.84
2022-12-26T12:39:03.486Z,13.52
2022-12-26T12:49:11.423Z,8.96
2022-12-26T12:59:19.296Z,5.37
2022-12-26T13:09:28.525Z,4.37
2022-12-26T13:19:36.433Z,3.63
2022-12-26T13:29:46.025Z,4.2
2022-12-26T13:39:54.146Z,4.87
2022-12-26T13:50:02.452Z,4.54
2022-12-26T14:00:10.413Z,6.18
2022-12-26T14:10:18.466Z,6.89
2022-12-26T14:20:26.653Z,7.73
2022-12-26T14:30:36.658Z,6.23
2022-12-26T14:40:36.825Z,6.45
2022-12-26T14:50:34.779Z,7.35
2022-12-26T15:00:42.538Z,6.1
2022-12-26T15:10:50.397Z,6.13
2022-12-26T15:20:58.285Z,6.51
2022-12-26T15:31:06.543Z,6.36
2022-12-26T15:41:18.685Z,6.05
2022-12-26T15:51:27.805Z,6.31
2022-12-26T16:01:54.840Z,7.31
2022-12-26T16:11:34.244Z,8.21
2022-12-26T16:21:42.250Z,7.71
2022-12-26T16:31:52.334Z,7.39
2022-12-26T16:41:50.255Z,9.13
2022-12-26T16:51:58.120Z,10.33
2022-12-26T17:02:06.190Z,9.54
2022-12-26T17:12:14.425Z,14.13
2022-12-26T17:22:22.850Z,11.52
2022-12-26T17:32:31.127Z,10.01
2022-12-26T17:42:39.214Z,15.84
2022-12-26T17:52:49.496Z,17.69
2022-12-26T18:02:58.522Z,18.99
2022-12-26T18:12:58.704Z,19.98
2022-12-26T18:23:01.006Z,22.54
2022-12-26T18:43:11.412Z,15.63
2022-12-26T18:53:10.408Z,11.46
2022-12-26T19:03:21.335Z,11.96
2022-12-26T19:13:26.400Z,11.29
2022-12-26T19:23:24.783Z,10.72
2022-12-26T19:33:33.246Z,10.87
2022-12-26T19:53:57.968Z,11.39
2022-12-26T20:04:06.807Z,11.3
2022-12-26T20:14:31.251Z,13.44
2022-12-26T20:24:26.569Z,13.25
2022-12-26T20:34:16.268Z,21.28
2022-12-26T20:44:16.947Z,11.06
2022-12-26T20:54:16.342Z,16.18
2022-12-26T21:04:28.403Z,14.22
2022-12-26T21:14:30.409Z,11.95
2022-12-26T21:24:28.688Z,17.43
2022-12-26T21:34:38.531Z,13.5
2022-12-26T21:44:47.581Z,19.12
2022-12-26T21:54:56.321Z,10.14
2022-12-26T22:05:07.349Z,13.9
2022-12-26T22:15:05.528Z,20.97
2022-12-26T22:25:13.833Z,9.78
2022-12-26T22:35:21.576Z,11.41
2022-12-26T22:45:33.093Z,11.68
2022-12-26T22:55:51.511Z,11.7
2022-12-26T23:05:56.223Z,11.4
2022-12-26T23:16:08.045Z,21.28
2022-12-26T23:25:58.743Z,15.9
2022-12-26T23:36:11.773Z,13.6
2022-12-26T23:56:10.910Z,11.23
